Skip Navigation LinksHome page > Weather > Current weather Skip Navigation Links

Current Weather

Central Park, New York

For information only: do not use for flight planning or navigation.
Latest weather
Observation time Monday, February 8, 2016 5:33 PM EST
Local time Monday, February 8, 2016 5:53 PM EST
Flight conditions Marginal Visual Meteorological Conditions
Winds
Wind direction Northeast (40°)
Winds variable from 350° to 70°
Wind speed 8 mph
Visibility 10 mi.
Sky condition
Ceiling 2,700 ft. broken clouds
Cloud layer broken clouds 2,700 ft.
Cloud layer broken clouds 4,900 ft.
Cloud layer overcast 5,500 ft.
Temperature 32°F
Dewpoint 21°F
Altimeter 29.77 in.Hg
Derived measurements
Relative humidity 64%
Wind chill 25°F
Density altitude -1437 ft.
Remarks
Special weather observation.
Fully automated report.
METAR SPUS81 KWBC 082236 SPECI KNYC 082233Z AUTO 04007KT 350V070 10SM BKN027 BKN049 OVC055 00/M06 A2977

Settings

Location code

InnerDrive.Weather 4.0.5722.1 Release CLR 4.0.30319.34209
Copyright ©2015 Inner Drive Technology. All rights reserved. Portions Copyright ©1986-2015 David Braverman.

Find weather

Site navigation


Skip Navigation Links

Place info

Page info

PayPal - The safer, easier way to pay online!

Return home.

Copyright ©2016 Inner Drive Technology. Purveyors of fine, hand-crafted computer software. Page printed 2016-02-08T22:53:33 UTC.